Tiempo atmosférico en la estación meteorológica de Izaña, Santa Cruz de Tenerife (2371 m.)



Fecha
DESCASC
Temp. máxima en grados centígrados (hora)
DESCASC
Temp. mínima en grados centígrados (hora)
DESCASC
Temp. media en grados centígrados
DESCASC
Racha de viento máxima en m/sg (hora)
DESCASC
Velocidad máxima media en intervalos de 10 minutos(hora)
DESCASC
Precipitaciones diarias en mm
DESCASC
Precipitaciones de 00:00 a 06:00 en mm
DESCASC
Precipitaciones de 06:00 a 12:00 en mm
DESCASC
Precipitaciones de 12:00 a 18:00 en mm
DESCASC
Precipitaciones de 18:00 a 24:00 en mm
DESCASC
23-06-2019 17.5 (14:20) 9.4 (05:50) 13.4 12.78 (09:00) 11.39 (08:30) 0 0 0 0 0
22-06-2019 18.4 (16:10) 9.1 (05:20) 13.8 12.5 (14:10) 11.39 (04:10) 0 0 0 0 0
21-06-2019 17.4 (15:10) 9.2 (00:00) 13.3 13.89 (14:20) 10.83 (05:30) 0 0 0 0 0
20-06-2019 18.8 (13:30) 9.1 (00:00) 13.9 15 (19:50) 13.33 (19:50) 0 0 0 0 0
19-06-2019 19.4 (13:50) 10.3 (00:00) 14.8 14.44 (08:20) 12.78 (05:50) 0 0 0 0 0
18-06-2019 19.6 (14:20) 12 (00:00) 15.8 15.28 (14:40) 11.94 (14:40) 0 0 0 0 0
17-06-2019 17.2 (19:00) 10.2 (00:00) 13.7 14.17 (04:00) 11.11 (04:00) 0 0 0 0 0
16-06-2019 17.3 (15:30) 8.1 (00:00) 12.7 12.78 (05:00) 10.56 (22:50) 0 0 0 0 0
15-06-2019 17.8 (15:40) 9 (00:00) 13.4 6.67 (13:00) 5 (23:20) 0 0 0 0 0
14-06-2019 16.4 (13:50) 7.5 (00:00) 11.9 10.83 (18:00) 8.33 (20:20) 0 0 0 0 0
13-06-2019 14.8 (14:30) 5.7 (00:00) 10.3 14.17 (08:10) 13.33 (07:50) 0 0 0 0 0
12-06-2019 13.5 (13:10) 6.9 (00:00) 10.2 17.22 (17:00) 13.89 (16:50) 0 0 0 0 0
11-06-2019 15.5 (15:30) 7.4 (00:00) 11.5 17.78 (14:20) 15 (14:40) 0 0 0 0 0
10-06-2019 18.1 (16:30) 7 (00:00) 12.6 13.89 (17:10) 10.83 (17:10) 0 0 0 0 0
09-06-2019 17.6 (13:30) 8 (00:00) 12.8 13.61 (23:10) 10 (06:40) 0 0 0 0 0
08-06-2019 16.7 (16:00) 7.9 (00:00) 12.3 10.83 (13:50) 8.06 (10:30) 0 0 0 0 0
07-06-2019 15.3 (13:50) 5.8 (00:00) 10.6 8.33 (16:20) 6.39 (02:10) 0 0 0 0 0
06-06-2019 16.9 (13:20) 7.7 (00:00) 12.3 -- (--) -- (--) -- 0 -- 0 0
05-06-2019 16.6 (15:00) 8.1 (00:00) 12.4 14.17 (00:50) 13.61 (01:00) 0 0 0 0 0
04-06-2019 18.3 (15:40) 9.8 (00:00) 14 19.17 (18:40) 15.83 (18:40) 0 0 0 0 0
03-06-2019 20.5 (15:20) 12.3 (00:00) 16.4 16.39 (11:00) 10.83 (11:40) -- 0 0 -- 0
02-06-2019 20.2 (13:40) 10.9 (00:00) 15.6 20 (06:20) 15.83 (06:20) 0 0 0 0 0
01-06-2019 21.6 (15:30) 12 (00:00) 16.8 16.39 (07:30) 12.5 (08:10) 0 0 0 0 0
31-05-2019 19.7 (15:30) 12.2 (00:00) 16 16.39 (12:30) 10.83 (11:40) 0 0 0 0 0
30-05-2019 19.7 (15:30) 11.6 (00:00) 15.7 10.56 (11:20) 6.94 (11:30) 0 0 0 0 0
29-05-2019 20.1 (17:40) 10.4 (00:00) 15.3 7.5 (12:50) 4.72 (06:10) 0 0 0 0 0
28-05-2019 17.7 (14:50) 6.9 (00:00) 12.3 8.61 (00:50) 6.67 (01:00) 0 0 0 0 0

Gráficas

Temp. máximas Temp. mínimas Temp. medias Precipitaciones Rachas de viento máximas Velocidades máximas media en intervalos de 10 minutos

Datos horarios

Fecha y hora oficial Temperatura (ºC) Velocidad del viento (km/h) Dirección del viento Racha (km/h) Dirección de racha Precipitación (mm) Presión (hPa) Tendencia (hPa) Humedad (%)
2019-06-26 23:00:00 13.5 46 Noroeste 54 Noroeste 0 771.9 0 2
2019-06-26 22:00:00 13.8 46 Noroeste 52 Noroeste 0 771.8 0.3 3
2019-06-26 21:00:00 13.9 40 Noroeste 51 Noroeste 0 771.8 -0.3 16
2019-06-26 20:00:00 15.9 30 Noroeste 53 Noroeste 0 771.9 -0.2 15
2019-06-26 19:00:00 17.5 41 Noroeste 49 Noroeste 0 771.5 -0.7 20
2019-06-26 18:00:00 19 30 Noroeste 44 Noroeste 0 772.1 -0.7 25
2019-06-26 17:00:00 18.7 30 Noroeste 53 Noroeste 0 772.1 -1.1 24
2019-06-26 16:00:00 18.3 35 Noroeste 46 Noroeste 0 772.2 -0.7 22
2019-06-26 15:00:00 18.6 21 Noroeste 32 Norte 0 772.8 -0.1 12
2019-06-26 14:00:00 18.9 23 Noroeste 48 Noroeste 0 773.2 0.4 13
2019-06-26 13:00:00 18.7 39 Noroeste 49 Noroeste 0 772.9 0.4 13
2019-06-26 12:00:00 18.4 41 Noroeste 56 Noroeste 0 772.9 0.4 16
2019-06-26 11:00:00 17.7 40 Noroeste 59 Noroeste 0 772.8 0.9 18
2019-06-26 10:00:00 16.2 44 Noroeste 54 Noroeste 0 772.5 1 20
2019-06-26 09:00:00 14.7 44 Noroeste 55 Noroeste 0 772.5 1.2 25
2019-06-26 08:00:00 13.5 48 Noroeste 57 Noroeste 0 771.9 0.5 34
2019-06-26 07:00:00 13.2 48 Noroeste 56 Noroeste 0 771.5 0.3 30
2019-06-26 06:00:00 13 52 Noroeste 61 Noroeste 0 771.3 -0.3 35
2019-06-26 05:00:00 12.7 49 Noroeste 62 Noroeste 0 771.4 -0.8 32
2019-06-26 04:00:00 12.4 54 Noroeste 62 Noroeste 0 771.2 -1.1 39
2019-06-26 03:00:00 13 51 Noroeste 60 Noroeste 0 771.6 -1.1 44
2019-06-26 02:00:00 13.6 49 Noroeste 62 Noroeste 0 772.2 -0.2 44
2019-06-26 01:00:00 13.9 55 Noroeste 64 Noroeste 0 772.3 0.6 40
2019-06-26 00:00:00 14 50 Noroeste 61 Noroeste 0 772.7 0.8 34
2019-06-25 23:00:00 14.2 54 Noroeste 70 Noroeste 0 772.4 0.5 32
2019-06-25 22:00:00 14.5 62 Noroeste 71 Noroeste 0 771.7 0.4 17
2019-06-25 21:00:00 16.3 49 Noroeste 65 Noroeste 0 771.9 0 13
2019-06-25 20:00:00 17.7 43 Noroeste 63 Noroeste 0 771.9 0 25
2019-06-25 19:00:00 18.1 50 Noroeste 59 Noroeste 0 771.3 -0.7 28
2019-06-25 18:00:00 19.2 35 Noroeste 49 Noroeste 0 771.9 -0.3 35
2019-06-25 17:00:00 18.5 38 Noroeste 52 Noroeste 0 771.9 -0.7 48
2019-06-25 16:00:00 19.8 30 Noroeste 45 Noroeste 0 772 -0.5 41
2019-06-25 15:00:00 20.2 23 Norte 41 Noroeste 0 772.2 -0.1 42
2019-06-25 14:00:00 19.5 14 Norte 30 Noroeste 0 772.6 0.5 42
2019-06-25 13:00:00 19.4 19 Noroeste 37 Noroeste 0 772.5 0.5 38
2019-06-25 12:00:00 19 24 Noroeste 37 Noroeste 0 772.3 0.8 34
2019-06-25 11:00:00 18.4 13 Noroeste 25 Noroeste 0 772.1 1 47
2019-06-25 10:00:00 16.8 9 Noroeste 36 Noroeste 0 772 1.1 46
2019-06-25 09:00:00 15.7 31 Noroeste 42 Noroeste 0 771.5 1 32
2019-06-25 08:00:00 14 26 Oeste 33 Noroeste 0 771.1 0.5 48
2019-06-25 07:00:00 13.5 23 Noroeste 40 Noroeste 0 770.9 0.2 41
2019-06-25 06:00:00 13.2 32 Noroeste 46 Noroeste 0 770.5 -0.7 47
2019-06-25 05:00:00 13.5 34 Noroeste 52 Noroeste 0 770.6 -1.3 47
2019-06-25 04:00:00 13.1 32 Noroeste 46 Noroeste 0 770.7 -1.8 47
2019-06-25 03:00:00 12.7 24 Noroeste 35 Noroeste 0 771.2 -1.3 33
2019-06-25 02:00:00 13.4 12 Oeste 24 Oeste 0 771.9 -0.4 30
2019-06-25 01:00:00 13.6 9 Noroeste 21 Noroeste 0 772.5 0.4 31
2019-06-25 00:00:00 13.7 13 Oeste 20 Oeste 0 772.5 0.8 32
2019-06-24 23:00:00 13.8 12 Oeste 20 Noroeste 0 772.3 0.9 35
2019-06-24 22:00:00 13.9 8 Noroeste 22 Noroeste 0 772.1 0.8 40
2019-06-24 21:00:00 15.6 10 Noroeste 17 Noroeste 0 771.7 0.5 50
2019-06-24 20:00:00 16 11 Noroeste 21 Noroeste 0 771.4 0 62
2019-06-24 19:00:00 17.1 11 Norte 23 Norte 0 771.3 -0.1 66
2019-06-24 18:00:00 17.5 13 Norte 25 Norte 0 771.2 -0.2 60
2019-06-24 17:00:00 17.5 11 Norte 23 Norte 0 771.4 -0.1 68
2019-06-24 16:00:00 17.9 13 Norte 26 Noroeste 0 771.4 -0.1 58
2019-06-24 15:00:00 18.1 12 Norte 25 Norte 0 771.4 0 58
2019-06-24 14:00:00 17.7 12 Norte 25 Norte 0 771.5 0.3 57
2019-06-24 13:00:00 17.5 9 Noroeste 27 Noroeste 0 771.5 0.4 53
2019-06-24 12:00:00 17.3 6 Noroeste 17 Norte 0 771.4 0.5 46
2019-06-24 11:00:00 16.1 6 Norte 16 Oeste 0 771.2 1 45
2019-06-24 10:00:00 15.7 9 Noroeste 13 Noroeste 0 771.1 1.1 38
2019-06-24 09:00:00 15 10 Noroeste 28 Noroeste 0 770.9 1.1 40
2019-06-24 08:00:00 12.9 21 Noroeste 32 Noroeste 0 770.2 0.4 45
2019-06-24 07:00:00 11.7 30 Noroeste 39 Noroeste 0 770 0 46
2019-06-24 06:00:00 11.4 25 Noroeste 32 Noroeste 0 769.8 -0.5 54
2019-06-24 05:00:00 11.9 28 Noroeste 35 Noroeste 0 769.8 -0.8 57
2019-06-24 04:00:00 12.5 28 Noroeste 33 Noroeste 0 770 -0.9 55
2019-06-24 03:00:00 11.3 28 Noroeste 39 Noroeste 0 770.3 -0.6 61
2019-06-24 02:00:00 11 31 Noroeste 37 Noroeste 0 770.6 -0.4 65
2019-06-24 01:00:00 11.6 32 Noroeste 47 Noroeste 0 770.9 0.2 61
2019-06-24 00:00:00 11.8 34 Noroeste 41 Noroeste 0 770.9 0.5 61
2019-06-23 23:00:00 12 28 Noroeste 35 Noroeste 0 771 0.9 59
2019-06-23 22:00:00 12.4 31 Noroeste 36 Noroeste 0 770.7 0.5 52
2019-06-23 21:00:00 13.8 25 Noroeste 35 Noroeste 0 770.4 0.1 52
2019-06-23 20:00:00 15 28 Noroeste 39 Noroeste 0 770.1 -0.4 52
2019-06-23 19:00:00 15.9 17 Noroeste 25 Norte 0 770.2 -0.3 63
2019-06-23 18:00:00 15.5 8 Norte 23 Norte 0 770.3 -0.4 65
2019-06-23 17:00:00 15 10 Norte 30 Noroeste 0 770.5 -0.6 62
2019-06-23 16:00:00 15.1 19 Noroeste 36 Noroeste 0 770.5 -0.9 55
2019-06-23 15:00:00 15.9 26 Noroeste 44 Noroeste 0 770.7 -0.5 44
2019-06-23 14:00:00 16.3 19 Noroeste 32 Norte 0 771.1 0.2 41
2019-06-23 13:00:00 16.4 17 Noroeste 36 Noroeste 0 771.4 0.8 35
2019-06-23 12:00:00 16.1 25 Noroeste 39 Noroeste 0 771.2 1.1 34
2019-06-23 11:00:00 15 30 Noroeste 42 Norte 0 770.9 1.1 38
2019-06-23 10:00:00 13.7 33 Noroeste 43 Noroeste 0 770.6 0.5 40
2019-06-23 09:00:00 12.5 39 Noroeste 46 Norte 0 770.1 0.4 33
2019-06-23 08:00:00 11 34 Noroeste 38 Noroeste 0 769.8 0.2 29
2019-06-23 07:00:00 9.8 20 Noroeste 30 Noroeste 0 770.1 0.3 34
2019-06-23 06:00:00 9.4 24 Noroeste 31 Noroeste 0 769.7 -0.8 55
2019-06-23 05:00:00 10.1 27 Noroeste 40 Noroeste 0 769.6 -1.6 54
2019-06-23 04:00:00 10.1 36 Noroeste 38 Noroeste 0 769.8 -1.8 50
2019-06-23 03:00:00 10 30 Noroeste 31 Noroeste 0 770.5 -1.2 29
2019-06-23 02:00:00 10.5 21 Noroeste 28 Noroeste 0 771.2 -0.4 12
2019-06-23 01:00:00 11 24 Noroeste 32 Noroeste 0 771.6 0.1 14
2019-06-23 00:00:00 11.8 32 Noroeste 35 Noroeste 0 771.7 0.3 22
2019-06-22 23:00:00 12.4 28 Noroeste 30 Noroeste 0 771.6 0.5 15
2019-06-22 22:00:00 12.2 21 Noroeste 22 Noroeste 0 771.5 0.3 17
2019-06-22 21:00:00 13 20 Noroeste 35 Noroeste 0 771.4 0 45
2019-06-22 20:00:00 15.1 27 Noroeste 32 Noroeste 0 771.1 -0.5 33
2019-06-22 19:00:00 15.9 26 Noroeste 35 Norte 0 771.2 -0.6 36
2019-06-22 18:00:00 16 21 Norte 31 Norte 0 771.4 -0.7 37
2019-06-22 17:00:00 16.8 20 Norte 32 Norte 0 771.6 -0.5 35
2019-06-22 16:00:00 18.1 20 Norte 33 Norte 0 771.8 -0.6 34
2019-06-22 15:00:00 17.1 24 Norte 45 Norte 0 772.1 -0.4 42
2019-06-22 14:00:00 16.8 34 Norte 44 Norte 0 772.1 0 40
2019-06-22 13:00:00 16.4 28 Norte 40 Norte 0 772.4 0.6 38
2019-06-22 12:00:00 15.7 27 Norte 37 Norte 0 772.5 0.9 33
2019-06-22 11:00:00 14.4 30 Norte 40 Noroeste 0 772.1 0.6 26
2019-06-22 10:00:00 13 31 Noroeste 39 Noroeste 0 771.8 0.4 31
2019-06-22 09:00:00 11.2 32 Noroeste 39 Norte 0 771.6 0.5 34
2019-06-22 08:00:00 10.4 29 Norte 39 Norte 0 771.5 0.9 36
2019-06-22 07:00:00 9.8 26 Noroeste 35 Noroeste 0 771.4 0.7 38
2019-06-22 06:00:00 9.2 19 Noroeste 33 Noroeste 0 771.1 -0.4 40
2019-06-22 05:00:00 9.3 33 Noroeste 44 Noroeste 0 770.6 -1 40
2019-06-22 04:00:00 10.2 41 Noroeste 44 Noroeste 0 770.7 -1.6 36
2019-06-22 03:00:00 10 30 Noroeste 40 Noroeste 0 771.5 -1 37
2019-06-22 02:00:00 9.5 37 Noroeste 42 Noroeste 0 771.6 -0.9 36
2019-06-22 01:00:00 10 33 Noroeste 38 Noroeste 0 772.3 0.4 32
2019-06-22 00:00:00 10.5 29 Noroeste 36 Norte 0 772.5 0.8 27
2019-06-21 23:00:00 10.6 27 Noroeste 37 Norte 0 772.5 0.6 31
2019-06-21 22:00:00 11 30 Norte 37 Norte 0 771.9 0.2 33
2019-06-21 21:00:00 12.4 30 Norte 36 Norte 0 771.7 0.1 33
2019-06-21 20:00:00 14 26 Norte 37 Norte 0 771.9 0.1 31
2019-06-21 19:00:00 15.5 29 Noroeste 39 Noroeste 0 771.7 -0.1 30
2019-06-21 18:00:00 15.7 31 Noroeste 39 Noroeste 0 771.6 -0.2 29
2019-06-21 17:00:00 16.3 27 Norte 40 Noroeste 0 771.8 -0.2 30
2019-06-21 16:00:00 16.6 30 Noroeste 46 Norte 0 771.8 -0.2 28
2019-06-21 15:00:00 17 36 Noroeste 50 Norte 0 771.8 -0.3 33
2019-06-21 14:00:00 16.8 36 Norte 48 Noroeste 0 772 0.1 35
2019-06-21 13:00:00 16.4 33 Norte 41 Norte 0 772 0.3 36
2019-06-21 12:00:00 15 32 Norte 42 Norte 0 772.1 0.8 35
2019-06-21 11:00:00 14.4 35 Noroeste 44 Noroeste 0 771.9 1.1 39
2019-06-21 10:00:00 13.3 35 Noroeste 41 Noroeste 0 771.7 0.9 41
2019-06-21 09:00:00 11.4 38 Noroeste 41 Noroeste 0 771.3 0.6 43
2019-06-21 08:00:00 9.9 35 Noroeste 40 Noroeste 0 770.8 -0.2 33
2019-06-21 07:00:00 9.3 36 Noroeste 41 Noroeste 0 770.8 -0.4 34
2019-06-21 06:00:00 9.5 36 Noroeste 42 Noroeste 0 770.7 -1 31
2019-06-21 05:00:00 10.6 35 Noroeste 38 Noroeste 0 771 -1.1 41
2019-06-21 04:00:00 10.1 28 Noroeste 31 Noroeste 0 771.2 -1.3 21
2019-06-21 03:00:00 10.1 27 Noroeste 38 Noroeste 0 771.7 -1 25
2019-06-21 02:00:00 10.1 34 Noroeste 38 Noroeste 0 772.1 -0.1 45
2019-06-21 01:00:00 10.1 30 Noroeste 33 Noroeste 0 772.5 0.7 45
2019-06-21 00:00:00 9.2 31 Noroeste 38 Noroeste 0 772.7 1.4 30
2019-06-20 23:00:00 9.5 37 Noroeste 41 Noroeste 0 772.2 1.4 30
2019-06-20 22:00:00 9.8 37 Noroeste 44 Noroeste 0 771.8 1 27
2019-06-20 21:00:00 11.5 39 Noroeste 51 Noroeste 0 771.3 0.1 26
2019-06-20 20:00:00 13.5 48 Noroeste 54 Noroeste 0 770.8 -0.4 24
2019-06-20 19:00:00 14.4 43 Noroeste 52 Noroeste 0 770.8 -0.6 22
2019-06-20 18:00:00 15.3 40 Noroeste 49 Noroeste 0 771.2 -0.5 21
2019-06-20 17:00:00 15.9 37 Noroeste 48 Noroeste 0 771.2 -0.8 19
2019-06-20 16:00:00 17.1 35 Noroeste 47 Noroeste 0 771.4 -1 21
2019-06-20 15:00:00 17.3 35 Noroeste 48 Noroeste 0 771.7 -0.9 19
2019-06-20 14:00:00 17.7 35 Noroeste 47 Noroeste 0 772 -0.3 17
2019-06-20 13:00:00 17.3 28 Noroeste 40 Noroeste 0 772.4 0.3 15
2019-06-20 12:00:00 16.9 23 Noroeste 33 Noroeste 0 772.6 0.7 13
2019-06-20 11:00:00 16.1 23 Noroeste 33 Noroeste 0 772.3 0.9 14
2019-06-20 10:00:00 15.5 22 Noroeste 30 Noroeste 0 772.1 0.9 12
2019-06-20 09:00:00 14 21 Noroeste 35 Noroeste 0 771.9 0.8 8
2019-06-20 08:00:00 12.1 27 Noroeste 34 Noroeste 0 771.4 0.1 9
2019-06-20 07:00:00 10.7 27 Noroeste 32 Noroeste 0 771.2 -0.4 12
2019-06-20 06:00:00 10.9 25 Noroeste 30 Noroeste 0 771.1 -0.7 13
2019-06-20 05:00:00 10.8 24 Noroeste 30 Noroeste 0 771.3 -0.9 12
2019-06-20 04:00:00 11.4 27 Noroeste 34 Noroeste 0 771.6 -1.2 13
2019-06-20 03:00:00 11.5 31 Noroeste 38 Noroeste 0 771.8 -1.4 13
2019-06-20 02:00:00 10.9 32 Noroeste 35 Noroeste 0 772.2 -0.5 6
2019-06-20 01:00:00 11.3 28 Noroeste 31 Noroeste 0 772.8 0.5 5
2019-06-20 00:00:00 11.9 24 Noroeste 38 Noroeste 0 773.2 1 11
2019-06-19 23:00:00 11 32 Noroeste 38 Noroeste 0 772.7 0.7 5
2019-06-19 22:00:00 11.2 33 Noroeste 37 Noroeste 0 772.3 0.3 7
2019-06-19 21:00:00 12.7 30 Noroeste 35 Noroeste 0 772.2 0.2 12
2019-06-19 20:00:00 15.5 33 Noroeste 41 Noroeste 0 772 0 20
2019-06-19 19:00:00 16.3 26 Noroeste 41 Noroeste 0 772 -0.4 17
2019-06-19 18:00:00 16.6 27 Noroeste 42 Norte 0 772 -0.5 18
2019-06-19 17:00:00 16.7 32 Noroeste 46 Noroeste 0 772 -0.6 24
2019-06-19 16:00:00 18.6 28 Noroeste 45 Noroeste 0 772.4 -0.3 17
2019-06-19 15:00:00 18.5 26 Noroeste 43 Noroeste 0 772.5 -0.2 18
2019-06-19 14:00:00 18.7 30 Noroeste 47 Noroeste 0 772.6 0.1 16
2019-06-19 13:00:00 19 29 Noroeste 40 Noroeste 0 772.7 0.6 14
2019-06-19 12:00:00 18.5 21 Noroeste 30 Norte 0 772.7 1 25
2019-06-19 11:00:00 17.2 18 Noroeste 31 Norte 0 772.5 1.5 20
2019-06-19 10:00:00 16.4 23 Noroeste 36 Noroeste 0 772.1 1.6 10
2019-06-19 09:00:00 15.6 28 Noroeste 52 Noroeste 0 771.7 1.3 8
2019-06-19 08:00:00 14.1 41 Noroeste 51 Noroeste 0 771 0.6 6
2019-06-19 07:00:00 11.5 40 Noroeste 51 Noroeste 0 770.5 -0.6 15
2019-06-19 06:00:00 11.3 44 Noroeste 51 Noroeste 0 770.4 -1.1 16
2019-06-19 05:00:00 10.4 37 Noroeste 41 Noroeste 0 770.4 -1.5 24
2019-06-19 04:00:00 10.6 21 Noroeste 28 Noroeste 0 771.1 -1 19
2019-06-19 03:00:00 11.5 17 Noroeste 31 Oeste 0 771.5 -0.9 14
2019-06-19 02:00:00 11.6 14 Noroeste 37 Noroeste 0 771.9 -0.5 16
2019-06-19 01:00:00 12.4 30 Noroeste 41 Noroeste 0 772.1 -0.1 15
2019-06-19 00:00:00 12.8 32 Noroeste 44 Noroeste 0 772.4 0.4 16
2019-06-18 23:00:00 12.9 18 Noroeste 31 Noroeste 0 772.4 0.5 19
2019-06-18 22:00:00 13.3 22 Noroeste 35 Noroeste 0 772.2 0.4 20
2019-06-18 21:00:00 14.9 15 Noroeste 25 Oeste 0 772 0.1 32
2019-06-18 20:00:00 15.7 16 Noroeste 24 Noroeste 0 771.9 0.1 31
2019-06-18 19:00:00 16.5 12 Noroeste 26 Noroeste 0 771.8 -0.2 31
2019-06-18 18:00:00 16.3 14 Noroeste 41 Noroeste 0 771.9 0.2 41
2019-06-18 17:00:00 17.6 27 Noroeste 40 Noroeste 0 771.8 -0.3 34
2019-06-18 16:00:00 17.6 22 Noroeste 48 Noroeste 0 772 -0.2 28
2019-06-18 15:00:00 18.5 37 Noroeste 55 Noroeste 0 771.7 -0.6 27
2019-06-18 14:00:00 19.3 31 Noroeste 47 Noroeste 0 772.1 0.1 28
2019-06-18 13:00:00 19.1 33 Noroeste 48 Noroeste 0 772.2 0.3 25
2019-06-18 12:00:00 17.7 22 Noroeste 32 Noroeste 0 772.3 1 23
2019-06-18 11:00:00 17.3 23 Noroeste 33 Noroeste 0 772 1.1 30
2019-06-18 10:00:00 16.3 19 Noroeste 39 Noroeste 0 771.9 1 35
2019-06-18 09:00:00 13.9 30 Noroeste 41 Noroeste 0 771.3 0.6 42
2019-06-18 08:00:00 13.1 22 Noroeste 44 Noroeste 0 770.9 0.2 46
2019-06-18 07:00:00 13.4 17 Oeste 40 Oeste 0 770.9 -0.2 40
2019-06-18 06:00:00 12.2 19 Oeste 33 Oeste 0 770.7 -0.9 53
2019-06-18 05:00:00 12.6 19 Oeste 32 Oeste 0 770.7 -1.4 50
2019-06-18 04:00:00 13.1 15 Oeste 28 Noroeste 0 771.1 -1.5 47
2019-06-18 03:00:00 14.3 12 Oeste 27 Oeste 0 771.6 -1.1 37
2019-06-18 02:00:00 13.8 11 Oeste 18 Oeste 0 772.1 -0.6 37
2019-06-18 01:00:00 14.1 14 Oeste 26 Oeste 0 772.6 0.1 33
2019-06-18 00:00:00 13.5 21 Oeste 35 Noroeste 0 772.7 0.5 35
2019-06-17 23:00:00 13.9 17 Noroeste 28 Noroeste 0 772.7 0.7 36
2019-06-17 22:00:00 13.8 23 Noroeste 27 Noroeste 0 772.5 0.7 37
2019-06-17 21:00:00 14.9 14 Noroeste 24 Noroeste 0 772.2 0.4 20
2019-06-17 20:00:00 16.3 22 Noroeste 29 Noroeste 0 772 0.1 26
2019-06-17 19:00:00 17 21 Noroeste 31 Noroeste 0 771.8 -0.1 32
2019-06-17 18:00:00 16.2 15 Norte 26 Norte 0 771.8 -0.4 38
2019-06-17 17:00:00 16 15 Noroeste 28 Noroeste 0 771.9 -0.5 46
2019-06-17 16:00:00 15.3 19 Noroeste 34 Noroeste 0 771.9 -0.6 51
2019-06-17 15:00:00 15.4 12 Noroeste 24 Noroeste 0 772.2 -0.3 52
2019-06-17 14:00:00 16.4 13 Noroeste 28 Norte 0 772.4 0.2 40
2019-06-17 13:00:00 15.5 18 Noroeste 25 Norte 0 772.5 0.3 46
2019-06-17 12:00:00 14.9 10 Noroeste 25 Norte 0 772.5 0.5 44
2019-06-17 11:00:00 14.6 13 Norte 23 Noroeste 0 772.2 0.5 36
2019-06-17 10:00:00 14.8 6 Norte 19 Noroeste 0 772.2 0.7 26
2019-06-17 09:00:00 13.9 7 Oeste 30 Noroeste 0 772 0.6 32
2019-06-17 08:00:00 12.1 23 Noroeste 34 Oeste 0 771.7 0.3 35
2019-06-17 07:00:00 10.6 26 Noroeste 36 Oeste 0 771.5 -0.2 40
2019-06-17 06:00:00 10.8 30 Noroeste 44 Noroeste 0 771.4 -1 38
2019-06-17 05:00:00 11 37 Noroeste 50 Noroeste 0 771.4 -1.4 42
2019-06-17 04:00:00 10.8 40 Noroeste 51 Noroeste 0 771.7 -1.8 40
2019-06-17 03:00:00 10.4 21 Noroeste 33 Noroeste 0 772.4 -1.1 32
2019-06-17 02:00:00 10.7 22 Noroeste 30 Noroeste 0 772.8 -0.2 34
2019-06-17 01:00:00 11.1 15 Noroeste 37 Noroeste 0 773.5 0.7 31
2019-06-17 00:00:00 12.1 28 Noroeste 36 Noroeste 0 773.5 0.6 26
2019-06-16 23:00:00 12.4 36 Noroeste 43 Noroeste 0 773 0.2 22
2019-06-16 22:00:00 12.1 32 Noroeste 40 Noroeste 0 772.8 0.2 31
2019-06-16 21:00:00 13.6 16 Noroeste 22 Noroeste 0 772.9 0.4 48
2019-06-16 20:00:00 14.8 7 Norte 17 Norte 0 772.8 0.2 48
2019-06-16 19:00:00 15.7 8 Noroeste 18 Noroeste 0 772.6 0.1 45
2019-06-16 18:00:00 15.5 13 Noroeste 29 Noroeste 0 772.5 -0.4 47
2019-06-16 17:00:00 15.8 14 Noroeste 38 Noroeste 0 772.6 -0.4 44
2019-06-16 16:00:00 16.6 26 Noroeste 42 Noroeste 0 772.5 -0.7 39
2019-06-16 15:00:00 16.3 15 Norte 27 Norte 0 772.9 -0.1 38
2019-06-16 14:00:00 16.7 11 Norte 25 Norte 0 773 0.3 33
2019-06-16 13:00:00 16.3 10 Norte 23 Norte 0 773.2 1 29
2019-06-16 12:00:00 15.8 12 Norte 22 Noroeste 0 773 1.2 22
2019-06-16 11:00:00 15.1 13 Norte 28 Noroeste 0 772.7 1.5 19
2019-06-16 10:00:00 14.3 13 Norte 24 Noroeste 0 772.2 1.5 15
2019-06-16 09:00:00 12.6 8 Norte 24 Noroeste 0 771.8 1.6 14
2019-06-16 08:00:00 11.2 12 Noroeste 35 Noroeste 0 771.2 1 14
2019-06-16 07:00:00 9.9 24 Noroeste 42 Noroeste 0 770.7 0.4 13
2019-06-16 06:00:00 9.5 35 Noroeste 44 Noroeste 0 770.2 -0.4 10
2019-06-16 05:00:00 10.7 34 Noroeste 46 Noroeste 0 770.2 -0.9 11
2019-06-16 04:00:00 9.8 18 Noroeste 30 Noroeste 0 770.3 -1.4 10
2019-06-16 03:00:00 8.3 15 Noroeste 18 Noroeste 0 770.6 -1.4 21
2019-06-16 02:00:00 10.2 12 Noroeste 23 Oeste 0 771.1 -0.6 11
2019-06-16 01:00:00 10.8 10 Oeste 18 Oeste 0 771.7 0.4 7
2019-06-16 00:00:00 10.4 12 Noroeste 21 Sudoeste 0 772 1.2 8
2019-06-15 23:00:00 10.3 14 Sudoeste 18 Sudoeste 0 771.7 1.2 11
2019-06-15 22:00:00 10.8 8 Noroeste 14 Oeste 0 771.3 1 20
2019-06-15 21:00:00 11.4 8 Oeste 20 Sudoeste 0 770.8 0.4 25
2019-06-15 20:00:00 12.4 9 Sur 18 Sur 0 770.5 -0.2 22
2019-06-15 19:00:00 14.4 8 Sudeste 19 Sudeste 0 770.3 -0.8 21
2019-06-15 18:00:00 15.4 10 Sudeste 21 Nordeste 0 770.4 -0.7 23
2019-06-15 17:00:00 16.2 7 Este 21 Sudeste 0 770.7 -0.5 23
2019-06-15 16:00:00 17 8 Nordeste 24 Noroeste 0 771.1 -0.2 22
2019-06-15 15:00:00 17.4 10 Este 21 Sudeste 0 771.1 -0.2 20
2019-06-15 14:00:00 17.1 7 Este 24 Nordeste 0 771.2 0.1 16
2019-06-15 13:00:00 17 7 Nordeste 24 Sudeste 0 771.3 0.5 21
2019-06-15 12:00:00 15 10 Norte 19 Este 0 771.3 0.8 21
2019-06-15 11:00:00 15.3 10 Sudeste 18 Sudeste 0 771.1 0.9 13
2019-06-15 10:00:00 15 9 Sudeste 17 Sudeste 0 770.8 0.9 12
2019-06-15 09:00:00 13.7 6 Sudeste 14 Sudeste 0 770.5 0.7 10
2019-06-15 08:00:00 12.1 3 Oeste 9 Noroeste 0 770.2 0.3 15
2019-06-15 07:00:00 9.8 4 Noroeste 14 Noroeste 0 769.9 -0.2 16
2019-06-15 06:00:00 10.2 6 Noroeste 14 Oeste 0 769.8 -0.5 16
2019-06-15 05:00:00 9.7 10 Oeste 13 Sudoeste 0 769.9 -0.8 17
2019-06-15 04:00:00 10.2 9 Sudoeste 14 Sudoeste 0 770.1 -0.9 15
2019-06-15 03:00:00 10.7 7 Noroeste 10 Oeste 0 770.3 -0.8 11
2019-06-15 02:00:00 10.3 6 Noroeste 11 Norte 0 770.7 -0.2 6
2019-06-15 01:00:00 9.8 11 Norte 14 Norte 0 771 0.5 9
2019-06-15 00:00:00 9.5 12 Norte 18 Noroeste 0 771.1 1.1 13
2019-06-14 23:00:00 8.8 15 Noroeste 21 Noroeste 0 770.9 1.1 16
2019-06-14 22:00:00 9.4 19 Noroeste 26 Noroeste 0 770.5 0.8 13
2019-06-14 21:00:00 11.1 27 Noroeste 35 Noroeste 0 770 0.4 14
2019-06-14 20:00:00 13 29 Noroeste 35 Noroeste 0 769.8 0.1 12
2019-06-14 19:00:00 13.9 24 Noroeste 36 Norte 0 769.7 0 13
2019-06-14 18:00:00 14.9 29 Noroeste 39 Noroeste 0 769.6 -0.4 15
2019-06-14 17:00:00 15.1 23 Noroeste 32 Noroeste 0 769.7 -0.4 21
2019-06-14 16:00:00 15.8 23 Noroeste 32 Noroeste 0 769.7 -0.5 20
2019-06-14 15:00:00 14.7 13 Noroeste 29 Noroeste 0 770 0 23
2019-06-14 14:00:00 15.9 18 Noroeste 26 Norte 0 770.1 0.3 16
2019-06-14 13:00:00 14.9 8 Norte 21 Noroeste 0 770.2 0.6 13
2019-06-14 12:00:00 13.7 14 Noroeste 20 Norte 0 770 0.8 25
2019-06-14 11:00:00 13.8 7 Noroeste 14 Norte 0 769.8 1 14
2019-06-14 10:00:00 13.9 5 Norte 13 Oeste 0 769.6 1.3 17
2019-06-14 09:00:00 12.9 6 Noroeste 11 Noroeste 0 769.2 1.2 12
2019-06-14 08:00:00 10.2 4 Sudoeste 16 Noroeste 0 768.8 0.8 13
2019-06-14 07:00:00 7.9 10 Noroeste 13 Noroeste 0 768.3 0.1 29
2019-06-14 06:00:00 8.2 8 Noroeste 14 Noroeste 0 768 -0.4 29
2019-06-14 05:00:00 7.6 12 Noroeste 13 Noroeste 0 768 -0.7 27
2019-06-14 04:00:00 8.5 5 Noroeste 19 Noroeste 0 768.2 -0.9 25
2019-06-14 03:00:00 7.5 17 Noroeste 21 Noroeste 0 768.4 -0.9 31
2019-06-14 02:00:00 8 21 Noroeste 24 Noroeste 0 768.7 -0.6 27
2019-06-14 01:00:00 8.2 22 Noroeste 28 Noroeste 0 769.1 0.1 14
2019-06-14 00:00:00 8.7 22 Noroeste 25 Noroeste 0 769.3 0.7 24
2019-06-13 23:00:00 9 22 Noroeste 25 Noroeste 0 769.3 1 34
2019-06-13 22:00:00 9.6 22 Noroeste 27 Noroeste 0 769 1.1 30
2019-06-13 21:00:00 11.1 28 Noroeste 32 Noroeste 0 768.6 0.7 24
2019-06-13 20:00:00 12.2 25 Noroeste 38 Noroeste 0 768.3 0.4 13
2019-06-13 19:00:00 13.1 31 Noroeste 39 Noroeste 0 767.9 -0.1 18
2019-06-13 18:00:00 13.4 31 Noroeste 42 Noroeste 0 767.9 -0.2 26
2019-06-13 17:00:00 14.6 29 Noroeste 40 Noroeste 0 767.9 -0.6 26
2019-06-13 16:00:00 13.6 27 Noroeste 40 Noroeste 0 768 -0.2 31
2019-06-13 15:00:00 14 30 Noroeste 40 Noroeste 0 768.1 0.3 29
2019-06-13 14:00:00 14.3 20 Noroeste 36 Noroeste 0 768.5 0.9 26
2019-06-13 13:00:00 13.4 30 Noroeste 38 Noroeste 0 768.2 1.1 29
2019-06-13 12:00:00 12.1 34 Noroeste 45 Norte 0 767.8 1.5 35
2019-06-13 11:00:00 11.1 32 Noroeste 38 Norte 0 767.6 1.9 40
2019-06-13 10:00:00 10.1 32 Norte 41 Noroeste 0 767.1 1.7 33
2019-06-13 09:00:00 7.9 40 Noroeste 51 Noroeste 0 766.3 0.8 19
2019-06-13 08:00:00 6.8 47 Noroeste 51 Noroeste 0 765.7 0.1 54
2019-06-13 07:00:00 5.9 45 Noroeste 49 Noroeste 0 765.4 -0.9 54
2019-06-13 06:00:00 6.3 40 Noroeste 47 Noroeste 0 765.5 -1.1 49
2019-06-13 05:00:00 6.5 37 Noroeste 43 Noroeste 0 765.6 -1.3 49
2019-06-13 04:00:00 6.5 28 Noroeste 32 Noroeste 0 766.3 -1.2 46
2019-06-13 03:00:00 6.8 24 Noroeste 32 Noroeste 0 766.6 -1.1 45
2019-06-13 02:00:00 7.4 27 Noroeste 31 Noroeste 0 766.9 -0.7 43
2019-06-13 01:00:00 7.7 22 Noroeste 28 Noroeste 0 767.5 0.1 35
2019-06-13 00:00:00 7.5 23 Noroeste 26 Noroeste 0 767.7 0.6 40
2019-06-12 23:00:00 7.2 21 Noroeste 28 Noroeste 0 767.6 1.2 33
2019-06-12 22:00:00 7.6 24 Noroeste 26 Noroeste 0 767.4 1.3 14
2019-06-12 21:00:00 8 29 Noroeste 44 Noroeste 0 767.1 0.8 21
2019-06-12 20:00:00 9.6 37 Noroeste 49 Noroeste 0 766.4 -0.2 39
2019-06-12 19:00:00 10.8 43 Noroeste 60 Noroeste 0 766.1 -0.7 41
2019-06-12 18:00:00 10.1 48 Noroeste 59 Noroeste 0 766.3 -0.8 60
2019-06-12 17:00:00 11.2 48 Noroeste 62 Norte 0 766.6 -0.7 54
2019-06-12 16:00:00 12 46 Noroeste 60 Noroeste 0 766.8 -0.8 45
2019-06-12 15:00:00 12.2 46 Noroeste 55 Noroeste 0 767.1 -0.6 49
2019-06-12 14:00:00 12.2 43 Noroeste 57 Noroeste 0 767.3 -0.2 50
2019-06-12 13:00:00 12.6 44 Noroeste 56 Norte 0 767.6 -0.1 43
2019-06-12 12:00:00 11.9 39 Noroeste 50 Noroeste 0 767.7 -0.1 47
2019-06-12 11:00:00 10.9 40 Noroeste 49 Norte 0 767.5 0 52
2019-06-12 10:00:00 10.2 33 Noroeste 38 Norte 0 767.7 0.1 55
2019-06-12 09:00:00 8.7 28 Norte 36 Norte 0 767.8 0.2 55
2019-06-12 08:00:00 7.9 21 Noroeste 26 Noroeste 0 767.5 -0.1 48
2019-06-12 07:00:00 7.8 22 Norte 31 Norte 0 767.6 -0.1 50
2019-06-12 06:00:00 8.1 23 Norte 35 Norte 0 767.6 -0.7 47
2019-06-12 05:00:00 7.8 25 Norte 38 Norte 0 767.6 -1.2 50
2019-06-12 04:00:00 7.6 29 Norte 39 Nordeste 0 767.7 -1.6 58
2019-06-12 03:00:00 7.2 29 Norte 38 Norte 0 768.3 -1.4 61
2019-06-12 02:00:00 8.3 28 Nordeste 40 Norte 0 768.8 -0.8 56
2019-06-12 01:00:00 8.1 28 Norte 50 Nordeste 0 769.3 -0.2 57
2019-06-12 00:00:00 8.7 33 Norte 53 Norte 0 769.7 0.3 52
2019-06-11 23:00:00 8.8 34 Norte 50 Norte 0 769.6 0.3 52
2019-06-11 22:00:00 8.6 31 Norte 48 Norte 0 769.5 0.3 53
2019-06-11 21:00:00 9.7 32 Noroeste 41 Norte 0 769.4 0.2 51
2019-06-11 20:00:00 11.4 30 Noroeste 47 Norte 0 769.3 -0.1 47
2019-06-11 19:00:00 12.6 36 Noroeste 51 Noroeste 0 769.2 -0.3 45
2019-06-11 18:00:00 13.2 41 Noroeste 55 Noroeste 0 769.2 -0.4 47
2019-06-11 17:00:00 14.1 43 Noroeste 57 Noroeste 0 769.4 -0.6 44
2019-06-11 16:00:00 14.4 46 Noroeste 60 Noroeste 0 769.5 -0.8 43
2019-06-11 15:00:00 14.9 52 Noroeste 64 Noroeste 0 769.6 -0.7 40
2019-06-11 14:00:00 14.9 50 Noroeste 61 Noroeste 0 770 -0.3 37
2019-06-11 13:00:00 14.7 46 Noroeste 58 Norte 0 770.3 -0.2 30
2019-06-11 12:00:00 13.7 46 Noroeste 55 Noroeste 0 770.3 0 34
2019-06-11 11:00:00 12.2 41 Noroeste 50 Norte 0 770.3 -0.1 36
2019-06-11 10:00:00 11.8 29 Noroeste 41 Norte 0 770.5 0.3 38
2019-06-11 09:00:00 10.5 27 Norte 39 Norte 0 770.3 0.1 39
2019-06-11 08:00:00 9.1 31 Norte 40 Norte 0 770.4 0 52
2019-06-11 07:00:00 8.5 30 Norte 39 Norte 0 770.2 -0.4 62
2019-06-11 06:00:00 8.7 32 Norte 40 Norte 0 770.2 -1 60
2019-06-11 05:00:00 7.8 28 Norte 42 Norte 0 770.4 -1.5 64
2019-06-11 04:00:00 9.1 33 Norte 41 Norte 0 770.6 -1.9 59
2019-06-11 03:00:00 8.1 27 Norte 42 Nordeste 0 771.2 -1.7 62
2019-06-11 02:00:00 8.5 27 Norte 40 Nordeste 0 771.9 -0.9 60
2019-06-11 01:00:00 8.6 26 Norte 34 Norte 0 772.5 0 50
2019-06-11 00:00:00 8.4 22 Norte 32 Norte 0 772.9 0.9 54
2019-06-10 23:00:00 9.3 24 Norte 35 Norte 0 772.8 0.9 35
2019-06-10 22:00:00 9.6 28 Norte 38 Norte 0 772.5 0.7 38
2019-06-10 21:00:00 10.8 32 Noroeste 41 Noroeste 0 772 0.2 30
2019-06-10 20:00:00 13.9 28 Noroeste 36 Noroeste 0 771.9 -0.3 24
2019-06-10 19:00:00 15.3 32 Noroeste 46 Norte 0 771.8 -0.8 24
2019-06-10 18:00:00 17 37 Noroeste 50 Norte 0 771.8 -1.3 18
2019-06-10 17:00:00 17.8 38 Norte 48 Norte 0 772.2 -1.1 15
2019-06-10 16:00:00 17.9 36 Noroeste 48 Noroeste 0 772.6 -1 23
2019-06-10 15:00:00 17.1 27 Noroeste 37 Noroeste 0 773.1 -0.4 22
2019-06-10 14:00:00 16.8 27 Noroeste 41 Noroeste 0 773.3 -0.3 28
2019-06-10 13:00:00 16.8 28 Norte 41 Noroeste 0 773.6 0.1 23
2019-06-10 12:00:00 15.4 27 Norte 35 Norte 0 773.5 0.2 20
2019-06-10 11:00:00 14.3 15 Noroeste 22 Noroeste 0 773.6 0.6 14
2019-06-10 10:00:00 13.2 17 Norte 24 Norte 0 773.5 0.7 13
2019-06-10 09:00:00 12.2 20 Norte 31 Norte 0 773.3 0.6 13
2019-06-10 08:00:00 10.7 19 Norte 32 Norte 0 773 0.1 12
2019-06-10 07:00:00 9.4 22 Norte 32 Norte 0 772.8 -0.5 21
2019-06-10 06:00:00 9.3 24 Noroeste 31 Norte 0 772.7 -0.6 21
2019-06-10 05:00:00 9.1 18 Noroeste 26 Norte 0 772.9 -0.8 24
2019-06-10 04:00:00 8.4 24 Noroeste 37 Norte 0 773.3 -0.5 30
2019-06-10 03:00:00 8 25 Noroeste 41 Norte 0 773.3 -0.8 30
2019-06-10 02:00:00 7.8 29 Norte 38 Norte 0 773.7 -0.4 29
2019-06-10 01:00:00 7.2 36 Noroeste 43 Norte 0 773.8 -0.2 30
2019-06-10 00:00:00 8.1 35 Norte 49 Noroeste 0 774.1 0.1 30
2019-06-09 23:00:00 8.6 34 Norte 42 Norte 0 774.1 0.2 30
2019-06-09 22:00:00 8.6 31 Norte 41 Norte 0 774 0.3 29
2019-06-09 21:00:00 10 27 Norte 36 Norte 0 774 0.3 26
2019-06-09 20:00:00 12.2 25 Norte 37 Noroeste 0 773.9 -0.2 21
2019-06-09 19:00:00 13.4 28 Noroeste 41 Noroeste 0 773.7 -0.5 22
2019-06-09 18:00:00 14.2 30 Norte 41 Norte 0 773.7 -0.4 20
2019-06-09 17:00:00 15.9 22 Norte 33 Norte 0 774.1 -0.2 20
2019-06-09 16:00:00 16.4 20 Norte 33 Noroeste 0 774.2 -0.4 23
2019-06-09 15:00:00 16.5 19 Noroeste 31 Norte 0 774.1 0 21
2019-06-09 14:00:00 16.6 17 Norte 26 Norte 0 774.3 0.7 20
2019-06-09 13:00:00 17.2 9 Noroeste 22 Norte 0 774.6 1.2 17
2019-06-09 12:00:00 15.2 15 Noroeste 24 Noroeste 0 774.1 1 19
2019-06-09 11:00:00 14.1 20 Noroeste 29 Noroeste 0 773.6 1 18
2019-06-09 10:00:00 12.3 24 Noroeste 30 Noroeste 0 773.4 1.4 23
2019-06-09 09:00:00 11.4 23 Noroeste 32 Noroeste 0 773.1 1.1 24
2019-06-09 08:00:00 10.3 26 Noroeste 36 Noroeste 0 772.6 0.4 27
2019-06-09 07:00:00 9.2 35 Noroeste 39 Noroeste 0 772 -0.6 26
2019-06-09 06:00:00 9.1 29 Noroeste 33 Norte 0 772 -0.9 2
2019-06-09 05:00:00 9.8 28 Noroeste 31 Noroeste 0 772.2 -1 3
2019-06-09 04:00:00 9.9 18 Noroeste 24 Norte 0 772.6 -1 5
2019-06-09 03:00:00 10.2 19 Noroeste 25 Norte 0 772.9 -0.9 16
2019-06-09 02:00:00 10.2 17 Noroeste 21 Noroeste 0 773.2 -0.3 25
2019-06-09 01:00:00 10 10 Noroeste 15 Norte 0 773.6 0.6 26
2019-06-09 00:00:00 9.8 10 Noroeste 14 Noroeste 0 773.8 1.1 26
2019-06-08 23:00:00 10.5 8 Norte 21 Noroeste 0 773.5 1.2 29
2019-06-08 22:00:00 11.2 17 Noroeste 26 Noroeste 0 773 0.9 28
2019-06-08 21:00:00 12.1 19 Noroeste 30 Noroeste 0 772.7 0.6 15
2019-06-08 20:00:00 13.5 24 Noroeste 31 Noroeste 0 772.3 0.3 19
2019-06-08 19:00:00 14.5 18 Noroeste 26 Noroeste 0 772.1 0.1 25
2019-06-08 18:00:00 15.3 13 Noroeste 26 Noroeste 0 772.1 -0.2 21
2019-06-08 17:00:00 15.7 14 Noroeste 23 Noroeste 0 772 -0.1 22
2019-06-08 16:00:00 16.1 10 Noroeste 24 Norte 0 772 -0.1 25
2019-06-08 15:00:00 15.8 13 Norte 34 Noroeste 0 772.3 0.1 25
2019-06-08 14:00:00 15.7 27 Noroeste 39 Norte 0 772.1 0.4 28
2019-06-08 13:00:00 15.5 24 Noroeste 33 Noroeste 0 772.1 0.6 29
2019-06-08 12:00:00 15.1 16 Noroeste 32 Noroeste 0 772.2 0.9 26
2019-06-08 11:00:00 13.9 25 Noroeste 37 Noroeste 0 771.7 0.5 29
2019-06-08 10:00:00 13.6 17 Noroeste 24 Noroeste 0 771.5 0.7 31
2019-06-08 09:00:00 11.7 15 Noroeste 20 Noroeste 0 771.3 0.9 31
2019-06-08 08:00:00 10.5 17 Noroeste 24 Noroeste 0 771.2 0.9 28
2019-06-08 07:00:00 8 17 Noroeste 25 Noroeste 0 770.8 -0.1 42
2019-06-08 06:00:00 8.5 22 Noroeste 30 Noroeste 0 770.4 -0.7 40
2019-06-08 05:00:00 8.6 25 Noroeste 27 Noroeste 0 770.3 -1.3 36
2019-06-08 04:00:00 9.1 12 Noroeste 15 Noroeste 0 770.9 -1 39
2019-06-08 03:00:00 9.2 11 Noroeste 14 Oeste 0 771.1 -0.9 45
2019-06-08 02:00:00 10 5 Noroeste 9 Noroeste 0 771.6 -0.1 39
2019-06-08 01:00:00 10.2 3 Oeste 9 Noroeste 0 771.9 0.7 37
2019-06-08 00:00:00 9.8 7 Noroeste 13 Noroeste 0 772 0.9 38
2019-06-07 23:00:00 9.9 10 Noroeste 13 Noroeste 0 771.7 0.9 35
2019-06-07 22:00:00 10.1 12 Noroeste 15 Noroeste 0 771.2 0.5 34
2019-06-07 21:00:00 11.4 13 Noroeste 23 Norte 0 771.1 0.5 35
2019-06-07 20:00:00 12.7 18 Noroeste 26 Norte 0 770.8 0.2 33
2019-06-07 19:00:00 13.2 14 Norte 25 Norte 0 770.7 0 39
2019-06-07 18:00:00 13.1 18 Norte 26 Norte 0 770.6 -0.2 47
2019-06-07 17:00:00 13.7 17 Norte 30 Norte 0 770.6 -0.4 44
2019-06-07 16:00:00 13.6 15 Norte 27 Norte 0 770.7 -0.2 42
2019-06-07 15:00:00 14.2 13 Norte 23 Norte 0 770.8 0.2 51
2019-06-07 14:00:00 15.3 13 Este 22 Este 0 771 0.7 38
2019-06-07 13:00:00 15 13 Norte 26 Norte 0 770.9 0.9 38
2019-06-07 12:00:00 13.2 17 Norte 27 Noroeste 0 770.6 1.1 40
2019-06-07 11:00:00 12.2 12 Norte 23 Norte 0 770.3 1.1 50
2019-06-07 10:00:00 11.2 14 Norte 24 Norte 0 770 1 44
2019-06-07 09:00:00 9.7 17 Norte 25 Norte 0 769.5 0.6 48
2019-06-07 08:00:00 7.8 20 Norte 28 Norte 0 769.2 0.4 59
2019-06-07 07:00:00 7 22 Norte 28 Norte 0 769 0.1 59
2019-06-07 06:00:00 6.5 19 Norte 26 Norte 0 768.9 -0.4 64
2019-06-07 05:00:00 6.1 14 Norte 27 Norte 0 768.8 -0.9 68
2019-06-07 04:00:00 6.5 18 Norte 26 Norte 0 768.9 -1 60
2019-06-07 03:00:00 7.2 18 Norte 30 Norte 0 769.3 -0.7 42
2019-06-07 02:00:00 7.7 22 Noroeste 28 Norte 0 769.7 -0.1 --
2019-06-07 01:00:00 8.3 16 Norte 27 Norte 0 769.9 0.5 --
2019-06-07 00:00:00 8.2 19 Norte 29 Norte 0 770 0.9 --
2019-06-06 23:00:00 8.6 19 Norte 28 Norte 0 769.8 1.1 --
2019-06-06 22:00:00 8.8 22 Norte 29 Norte 0 769.4 0.7 --
2019-06-06 21:00:00 10 24 Norte 36 Norte 0 769.1 0.3 --
2019-06-06 20:00:00 11.8 32 Norte 38 Norte 0 768.7 -0.2 7
2019-06-06 19:00:00 12 29 Norte 35 Norte 0 768.7 -0.4 11
2019-06-06 18:00:00 12.7 28 Norte 37 Noroeste 0 768.8 -0.4 12
2019-06-06 17:00:00 14.7 23 Noroeste 32 Norte 0 768.9 -0.4 13
2019-06-06 16:00:00 15 18 Norte 31 Norte 0 769.1 -0.1 12
2019-06-06 15:00:00 16.2 10 Noroeste 22 Norte 0 769.2 0.2 5
2019-06-06 14:00:00 15.9 14 Noroeste 26 Noroeste 0 769.3 0.5 16
2019-06-06 13:00:00 16.3 17 Norte 24 Noroeste 0 769.2 -- 9
2019-06-06 12:00:00 14.7 19 Norte 25 Noroeste 0 769 0.7 4
2019-06-06 11:00:00 14.1 17 Norte -- -- -- 768.8 0.9 4
2019-06-06 10:00:00 -- -- -- -- -- -- -- -- --
2019-06-06 09:00:00 10.9 26 Noroeste 36 Noroeste 0 768.3 0.3 8
2019-06-06 08:00:00 9.5 28 Noroeste 35 Noroeste 0 767.9 -0.3 5
2019-06-06 07:00:00 8.7 31 Noroeste 36 Noroeste 0 767.8 -0.6 6
2019-06-06 06:00:00 8.9 30 Noroeste 34 Noroeste 0 768 -0.9 4
2019-06-06 05:00:00 8.5 29 Noroeste 31 Noroeste 0 768.2 -1.3 3
2019-06-06 04:00:00 7.9 24 Noroeste 27 Noroeste 0 768.4 -1.7 5
2019-06-06 03:00:00 9.6 21 Noroeste 23 Noroeste 0 768.9 -1.5 15
2019-06-06 02:00:00 10.3 16 Noroeste 22 Norte 0 769.5 -0.8 12
2019-06-06 01:00:00 10.7 16 Noroeste 19 Norte 0 770.1 0 12
2019-06-06 00:00:00 10.6 12 Noroeste 19 Noroeste 0 770.4 0.7 14
2019-06-05 23:00:00 10.7 15 Norte 25 Norte 0 770.3 0.7 10
2019-06-05 22:00:00 10.7 12 Norte -- -- -- 770.1 0.5 12
2019-06-05 21:00:00 11.3 14 Noroeste 24 Noroeste 0 769.7 -0.1 15
2019-06-05 20:00:00 12.8 19 Noroeste 28 Norte 0 769.6 -0.3 23
2019-06-05 19:00:00 14 21 Noroeste 27 Norte 0 769.6 -0.7 19
2019-06-05 18:00:00 14.3 18 Noroeste 31 Noroeste 0 769.8 -0.8 17
2019-06-05 17:00:00 14.9 21 Norte 29 Norte 0 769.9 -1.1 19
2019-06-05 16:00:00 15.9 13 Noroeste 22 Norte 0 770.3 -0.8 21
2019-06-05 15:00:00 16.6 12 Noroeste 22 Norte 0 770.6 -0.2 22
2019-06-05 14:00:00 16.1 15 Norte 30 Noroeste 0 771 -0.1 21
2019-06-05 13:00:00 15.2 19 Noroeste 38 Noroeste 0 771.1 0.2 24
2019-06-05 12:00:00 14.2 30 Noroeste 38 Noroeste 0 770.8 0 25
2019-06-05 11:00:00 14.2 22 Noroeste 37 Noroeste 0 771.1 1.2 32
2019-06-05 10:00:00 12.2 30 Noroeste 38 Noroeste 0 770.9 1.3 35
2019-06-05 09:00:00 11.1 36 Noroeste 45 Noroeste 0 770.8 1.1 29
2019-06-05 08:00:00 9.4 43 Noroeste 50 Noroeste 0 769.9 -0.3 29
2019-06-05 07:00:00 8.6 47 Noroeste 50 Noroeste 0 769.6 -1.4 28
2019-06-05 06:00:00 8.3 43 Noroeste 46 Noroeste 0 769.7 -1.8 35
2019-06-05 05:00:00 9.7 43 Noroeste 48 Noroeste 0 770.2 -1.8 34
2019-06-05 04:00:00 10.1 37 Noroeste 41 Noroeste 0 771 -1 32
2019-06-05 03:00:00 10.2 34 Noroeste 39 Noroeste 0 771.5 -0.9 30
2019-06-05 02:00:00 9.9 39 Noroeste 50 Noroeste 0 772 -0.2 33
2019-06-05 01:00:00 9.7 49 Noroeste 51 Noroeste 0 772 -0.1 37
2019-06-05 00:00:00 9.9 44 Noroeste 51 Noroeste 0 772.4 0.6 43
2019-06-04 23:00:00 9.9 41 Noroeste 48 Noroeste 0 772.2 0.7 46
2019-06-04 22:00:00 10 47 Noroeste 52 Noroeste 0 772.1 0.3 43
2019-06-04 21:00:00 11.3 47 Noroeste 61 Noroeste 0 771.8 -0.4 37
2019-06-04 20:00:00 13.5 53 Noroeste 62 Noroeste 0 771.5 -0.8 33
2019-06-04 19:00:00 14.9 53 Noroeste 69 Noroeste 0 771.8 -1 33
2019-06-04 18:00:00 15.9 55 Noroeste 66 Noroeste 0 772.2 -1.1 30
2019-06-04 17:00:00 17 54 Noroeste 68 Norte 0 772.3 -1.1 26
2019-06-04 16:00:00 17.7 53 Noroeste 66 Noroeste 0 772.8 -1.1 29
2019-06-04 15:00:00 17.7 46 Noroeste 62 Norte 0 773.3 -0.8 29
2019-06-04 14:00:00 18.1 44 Noroeste 55 Norte 0 773.4 -0.5 26
2019-06-04 13:00:00 17.7 37 Noroeste 53 Noroeste 0 773.9 -0.1 26
2019-06-04 12:00:00 16.4 38 Noroeste 46 Noroeste 0 774.1 0.6 25
2019-06-04 11:00:00 16.2 33 Norte 43 Norte 0 773.9 0.7 27
2019-06-04 10:00:00 15.4 21 Noroeste 31 Noroeste 0 774 1.1 26
2019-06-04 09:00:00 13.2 27 Noroeste 34 Noroeste 0 773.5 0.8 24
2019-06-04 08:00:00 12 24 Noroeste 28 Noroeste 0 773.2 0.3 22
2019-06-04 07:00:00 11.1 22 Noroeste 25 Noroeste 0 772.9 -0.2 23
2019-06-04 06:00:00 11.1 21 Noroeste 27 Noroeste 0 772.7 -1 22
2019-06-04 05:00:00 11.2 23 Noroeste 28 Noroeste 0 772.9 -1.3 22
2019-06-04 04:00:00 11.6 24 Noroeste 29 Norte 0 773.1 -1.6 24
2019-06-04 03:00:00 11.6 22 Noroeste 28 Norte 0 773.7 -1.3 23
2019-06-04 02:00:00 11.8 19 Norte 27 Noroeste 0 774.2 -0.6 21
2019-06-04 01:00:00 11.9 21 Norte 26 Norte 0 774.7 0.5 23
2019-06-04 00:00:00 12.3 22 Nordeste 30 Nordeste 0 775 1.1 26
2019-06-03 23:00:00 12.6 26 Nordeste 31 Nordeste 0 774.8 0.9 25
2019-06-03 22:00:00 12.8 25 Nordeste 33 Nordeste 0 774.2 0.5 24
2019-06-03 21:00:00 13.2 21 Norte 35 Norte 0 773.9 -0.1 23
2019-06-03 20:00:00 15.2 22 Norte 36 Norte 0 773.9 -0.2 19
2019-06-03 19:00:00 16.2 26 Norte 39 Norte 0 773.7 -0.6 13
2019-06-03 18:00:00 18.6 22 Norte 34 Norte 0 774 -0.3 22
2019-06-03 17:00:00 19.8 9 Nordeste 35 Este 0 774.1 -0.3 18
2019-06-03 16:00:00 20.1 23 Este 47 Este 0 774.3 -0.2 18
2019-06-03 15:00:00 19.9 31 Este -- -- -- 774.3 -0.1 15
2019-06-03 14:00:00 19.8 33 Este 54 Sudeste 0 774.4 0.2 15
2019-06-03 13:00:00 19.9 34 Sudeste 55 Este 0 774.5 0.4 15
2019-06-03 12:00:00 19.5 35 Este 59 Este 0 774.4 0.7 16
2019-06-03 11:00:00 19.2 38 Este 59 Este 0 774.2 0.9 16
2019-06-03 10:00:00 18.1 30 Este 45 Este 0 774.1 1 10
2019-06-03 09:00:00 16.6 33 Este 50 Este 0 773.7 0.7 12
2019-06-03 08:00:00 14.5 32 Este 46 Este 0 773.3 0.3 14
2019-06-03 07:00:00 13.4 30 Este 45 Este 0 773.1 -0.1 16
2019-06-03 06:00:00 13.4 30 Este 44 Este 0 773 -0.5 18
2019-06-03 05:00:00 13.3 30 Este 42 Este 0 773 -0.9 16
2019-06-03 04:00:00 13.1 31 Sudeste 43 Sudeste 0 773.2 -1.1 20
2019-06-03 03:00:00 13 31 Este 42 Este 0 773.5 -1 22
2019-06-03 02:00:00 12.8 30 Este 41 Este 0 773.9 -0.2 21
2019-06-03 01:00:00 13.1 29 Este 41 Este 0 774.3 0.7 24
2019-06-03 00:00:00 13.2 26 Este 41 Este 0 774.5 1.4 24
2019-06-02 23:00:00 13 26 Este 36 Este 0 774.1 1.4 21
2019-06-02 22:00:00 12.8 17 Este 26 Este 0 773.6 1 29
2019-06-02 21:00:00 14.2 14 Este 23 Este 0 773.1 0.6 40
2019-06-02 20:00:00 15.8 19 Este 26 Este 0 772.7 0.2 35
2019-06-02 19:00:00 18.2 10 Sudeste 23 Sudeste 0 772.6 0 30
2019-06-02 18:00:00 18.8 19 Sudeste 36 Sudeste 0 772.5 -0.1 33
2019-06-02 17:00:00 19.6 25 Sudeste 35 Sudeste 0 772.5 -0.2 30
2019-06-02 16:00:00 19.1 24 Sudeste 37 Sudeste 0 772.6 -0.2 31
2019-06-02 15:00:00 19.3 28 Sudeste 46 Sudeste 0 772.6 0 29
2019-06-02 14:00:00 19.6 30 Sudeste 45 Sudeste 0 772.7 0.4 29
2019-06-02 13:00:00 19.3 34 Sudeste 53 Sudeste 0 772.8 1 28
2019-06-02 12:00:00 18.9 40 Sudeste 62 Sudeste 0 772.6 1.2 29
2019-06-02 11:00:00 18.1 42 Sudeste 63 Sudeste 0 772.3 1.3 31
2019-06-02 10:00:00 17.2 48 Sudeste 62 Sudeste 0 771.8 1.4 30
2019-06-02 09:00:00 15.6 43 Sudeste 64 Sudeste 0 771.4 1.3 32
2019-06-02 08:00:00 13.9 49 Sudeste 63 Sudeste 0 771 0.8 34
2019-06-02 07:00:00 12.3 51 Sudeste 72 Sudeste 0 770.4 0.2 31
2019-06-02 06:00:00 12.3 53 Sudeste 66 Sudeste 0 770.1 -0.4 34
2019-06-02 05:00:00 12 46 Sudeste 59 Sudeste 0 770.2 -0.8 36
2019-06-02 04:00:00 12.2 45 Sudeste 55 Sudeste 0 770.2 -1.1 32
2019-06-02 03:00:00 11.6 40 Sudeste 49 Sudeste 0 770.5 -0.8 37
2019-06-02 02:00:00 12.8 37 Sudeste 42 Sudeste 0 771 0 34
2019-06-02 01:00:00 13.2 33 Sur 42 Sur 0 771.3 0.7 32
2019-06-02 00:00:00 13.5 36 Sur 40 Sur 0 771.3 1 25
2019-06-01 23:00:00 13.6 30 Sur 35 Sur 0 771 1 28
2019-06-01 22:00:00 14.1 22 Sur 27 Sur 0 770.6 0.8 25
2019-06-01 21:00:00 14.6 18 Sur 22 Sur 0 770.3 0.4 25
2019-06-01 20:00:00 15.8 15 Sur 22 Sudeste 0 770 -0.2 24
2019-06-01 19:00:00 17.3 16 Sudeste 28 Sudeste 0 769.8 -0.7 31
2019-06-01 18:00:00 18.7 20 Sudeste 28 Sudeste 0 769.9 -0.8 28
2019-06-01 17:00:00 20.1 17 Sudeste 29 Sudeste 0 770.2 -0.8 25
2019-06-01 16:00:00 20.5 17 Sudeste 32 Sudeste 0 770.5 -0.7 27
2019-06-01 15:00:00 21.4 18 Sudeste 34 Sudeste 0 770.7 -0.5 27
2019-06-01 14:00:00 21.1 20 Sudeste 35 Sudeste 0 771 0 24
2019-06-01 13:00:00 20.4 22 Sudeste 39 Sudeste 0 771.2 0.5 23
2019-06-01 12:00:00 19.4 19 Sudeste 30 Sudeste 0 771.2 1 24
2019-06-01 11:00:00 17.8 21 Sudeste 43 Sudeste 0 771 1.2 28
2019-06-01 10:00:00 17.4 34 Sudeste 51 Sudeste 0 770.7 0.9 28
2019-06-01 09:00:00 16.6 40 Sudeste 57 Sudeste 0 770.2 0.4 28
2019-06-01 08:00:00 14.6 42 Sudeste 59 Sudeste 0 769.8 -0.4 30
2019-06-01 07:00:00 13 38 Sudeste 55 Sudeste 0 769.8 -0.5 35
2019-06-01 06:00:00 12.3 30 Sudeste 40 Sudeste 0 769.8 -0.7 35
2019-06-01 05:00:00 12.4 17 Este 26 Este 0 770.2 -0.6 40
2019-06-01 04:00:00 12 14 Este 19 Este 0 770.3 -1 33
2019-06-01 03:00:00 12.5 13 Sudeste 26 Este 0 770.5 -0.9 28
2019-06-01 02:00:00 13.4 19 Sudeste 24 Sudeste 0 770.8 -0.5 23
2019-06-01 01:00:00 13.8 18 Sudeste 26 Sudeste 0 771.3 0.3 27
2019-06-01 00:00:00 14.3 19 Sudeste 30 Sudeste 0 771.4 0.9 24
2019-05-31 23:00:00 14.7 27 Sudeste 30 Sudeste 0 771.3 0.8 27
2019-05-31 22:00:00 14.4 24 Sudeste 35 Sur 0 771 0.6 29
2019-05-31 21:00:00 15.1 29 Sur 33 Sudeste 0 770.5 -0.1 27
2019-05-31 20:00:00 15.8 20 Sur 30 Sur 0 770.5 -0.3 23
2019-05-31 19:00:00 17.1 21 Sur 28 Sur 0 770.4 -0.5 24
2019-05-31 18:00:00 18 19 Sudeste 35 Sur 0 770.6 -0.4 22
2019-05-31 17:00:00 18.1 23 Sur 43 Sur 0 770.8 -0.3 20
2019-05-31 16:00:00 18.5 26 Sur 47 Sur 0 770.9 -0.2 18
2019-05-31 15:00:00 18.8 26 Sur 44 Sur 0 771 0.1 20
2019-05-31 14:00:00 19.5 30 Sudeste 50 Sur 0 771.1 0.4 19
2019-05-31 13:00:00 18.7 33 Sur 59 Sudeste 0 771.1 0.6 20
2019-05-31 12:00:00 18.6 35 Sudeste 56 Sudeste 0 770.9 0.8 20
2019-05-31 11:00:00 17.8 35 Sudeste 57 Sudeste 0 770.7 0.8 20
2019-05-31 10:00:00 16.8 35 Sudeste 50 Sudeste 0 770.5 0.9 19
2019-05-31 09:00:00 15.7 31 Sur 47 Sur 0 770.1 0.5 17
2019-05-31 08:00:00 13.6 30 Sur 36 Sur 0 769.9 0.2 15
2019-05-31 07:00:00 12.4 30 Sur 33 Sur 0 769.6 -0.3 14
2019-05-31 06:00:00 12.5 26 Sur 28 Sur 0 769.6 -0.8 15
2019-05-31 05:00:00 12.3 22 Sur 24 Sur 0 769.7 -1.2 29
2019-05-31 04:00:00 12.7 22 Sur 26 Sur 0 769.9 -1.5 10
2019-05-31 03:00:00 13.1 19 Sur 27 Sur 0 770.4 -1.3 6
2019-05-31 02:00:00 13.2 25 Sur 29 Sur 0 770.9 -0.6 9
2019-05-31 01:00:00 13.2 22 Sur 25 Sur 0 771.4 0 11
2019-05-31 00:00:00 13.6 20 Sur 22 Sur 0 771.7 0.7 12
2019-05-30 23:00:00 13.7 21 Sur 23 Sur 0 771.5 0.7 12
2019-05-30 22:00:00 13 19 Sur 19 Sur 0 771.4 0.8 13
2019-05-30 21:00:00 14.4 12 Sudoeste 13 Sudoeste 0 771 0.2 12
2019-05-30 20:00:00 16.4 10 Sudoeste 17 Sudoeste 0 770.8 -0.2 13
2019-05-30 19:00:00 17.4 10 Sudoeste 21 Sudoeste 0 770.6 -0.6 17
2019-05-30 18:00:00 17.5 15 Sur 26 Sur 0 770.8 -0.5 22
2019-05-30 17:00:00 19 14 Sur 31 Sur 0 771 -0.4 25
2019-05-30 16:00:00 18.9 17 Sur 35 Sudoeste 0 771.2 -0.2 13
2019-05-30 15:00:00 19.5 17 Sur 31 Sur 0 771.3 0 18
2019-05-30 14:00:00 18.8 18 Sur 27 Sur 0 771.4 0.3 22
2019-05-30 13:00:00 18.4 17 Sur 34 Sudeste 0 771.4 0.5 21
2019-05-30 12:00:00 16.9 22 Sudeste 38 Sudeste 0 771.3 0.7 22
2019-05-30 11:00:00 16.8 23 Sudeste 33 Sudeste 0 771.1 0.7 20
2019-05-30 10:00:00 16.1 18 Sudeste 25 Sudeste 0 770.9 0.8 18
2019-05-30 09:00:00 14.7 12 Sudeste 17 Sudeste 0 770.6 0.7 20
2019-05-30 08:00:00 14 6 Sudeste 10 Sudeste 0 770.4 0.4 13
2019-05-30 07:00:00 11.7 8 Sudeste 12 Sudeste 0 770.1 0 19
2019-05-30 06:00:00 11.9 9 Sudeste 13 Sudeste 0 769.9 -0.6 17
2019-05-30 05:00:00 12.2 9 Sudeste 13 Sudeste 0 770 -1 8
2019-05-30 04:00:00 12.3 9 Sudeste 12 Sudeste 0 770.1 -1.3 6
2019-05-30 03:00:00 12.5 10 Sudeste 13 Sudeste 0 770.5 -1.3 6
2019-05-30 02:00:00 12.8 10 Sudeste 13 Sudeste 0 771 -0.7 5
2019-05-30 01:00:00 13 10 Sudeste 12 Sudeste 0 771.4 0.1 5
2019-05-30 00:00:00 12.8 8 Sudeste 10 Sudeste 0 771.8 0.9 5
2019-05-29 23:00:00 13.4 7 Sudeste 10 Este 0 771.7 1 5
2019-05-29 22:00:00 15.3 6 Sur 8 Sur 0 771.3 0.7 3
2019-05-29 21:00:00 16.4 3 Sudeste 9 Noroeste 0 770.9 0.3 13
2019-05-29 20:00:00 17.4 4 Noroeste 14 Noroeste 0 770.7 0 26
2019-05-29 19:00:00 18.4 6 Nordeste 18 Norte 0 770.6 -0.2 28
2019-05-29 18:00:00 18.9 8 Nordeste 21 Norte 0 770.6 -0.4 26
2019-05-29 17:00:00 19.6 7 Este 17 Sudeste 0 770.7 -0.4 14
2019-05-29 16:00:00 19 10 Sudeste 21 Sudeste 0 770.8 -0.5 16
2019-05-29 15:00:00 18.3 12 Sudeste 26 Sudeste 0 771 -0.3 15
2019-05-29 14:00:00 18.5 13 Sudeste 27 Sudeste 0 771.1 -0.1 22
2019-05-29 13:00:00 17.8 13 Sudeste 27 Sudeste 0 771.3 0.4 19
2019-05-29 12:00:00 17 11 Sudeste 22 Sudeste 0 771.3 0.6 17
2019-05-29 11:00:00 16.9 10 Este 19 Sudeste 0 771.2 0.8 20
2019-05-29 10:00:00 16.4 8 Sudeste 15 Este 0 770.9 0.8 17
2019-05-29 09:00:00 15.3 8 Este 17 Este 0 770.7 0.6 11
2019-05-29 08:00:00 13.9 11 Este 19 Este 0 770.4 0.3 6
2019-05-29 07:00:00 11.6 11 Nordeste 24 Nordeste 0 770.1 0 9
2019-05-29 06:00:00 11.3 17 Norte 23 Norte 0 770.1 -0.3 10
2019-05-29 05:00:00 11.3 14 Norte 22 Norte 0 770.1 -0.7 9
2019-05-29 04:00:00 11.1 15 Norte 20 Norte 0 770.1 -1 9
2019-05-29 03:00:00 10.6 16 Norte 19 Norte 0 770.4 -0.7 14
2019-05-29 02:00:00 10.5 12 Norte 13 Norte 0 770.8 -0.1 16
2019-05-29 01:00:00 11.5 10 Norte 15 Norte 0 771.1 0.4 9
2019-05-29 00:00:00 10.4 11 Norte 18 Norte 0 771.1 0.6 18
2019-05-28 23:00:00 10.8 11 Norte 14 Norte 0 770.9 0.7 13
2019-05-28 22:00:00 11.6 9 Noroeste 13 Noroeste 0 770.7 0.6 9
2019-05-28 21:00:00 13.2 9 Noroeste 15 Noroeste 0 770.5 0.3 25
2019-05-28 20:00:00 14.8 12 Noroeste 18 Noroeste 0 770.2 0 30
2019-05-28 19:00:00 15.2 12 Noroeste 20 Noroeste 0 770.1 -0.2 31
2019-05-28 18:00:00 16.2 12 Norte 24 Norte 0 770.2 -0.2 34
2019-05-28 17:00:00 17.2 8 Norte 19 Norte 0 770.2 -0.3 32
2019-05-28 16:00:00 16.7 9 Este 23 Este 0 770.3 -0.4 35
2019-05-28 15:00:00 17 10 Este 23 Nordeste 0 770.4 -0.3 35
2019-05-28 14:00:00 16.6 11 Este 22 Este 0 770.5 0.1 36
2019-05-28 13:00:00 16.6 10 Este 21 Este 0 770.7 0.7 36
2019-05-28 12:00:00 16 9 Nordeste 19 Norte 0 770.7 1 38
2019-05-28 11:00:00 14.7 9 Nordeste 19 Nordeste 0 770.4 1.1 41
2019-05-28 10:00:00 13.8 9 Nordeste 23 Este 0 770 1 35
2019-05-28 09:00:00 12.4 13 Este 23 Este 0 769.7 1.1 25
2019-05-28 08:00:00 10.8 9 Nordeste 24 Nordeste 0 769.3 0.6 17
2019-05-28 07:00:00 9.1 15 Nordeste 28 Nordeste 0 769 0.3 20
2019-05-28 06:00:00 8.2 20 Norte 27 Norte 0 768.6 -0.6 36
2019-05-28 05:00:00 8.1 13 Nordeste 19 Este 0 768.7 -0.8 45
2019-05-28 04:00:00 6.9 16 Este 21 Este 0 768.7 -1.1 62
2019-05-28 03:00:00 7 18 Este 27 Este 0 769.2 -0.8 61
2019-05-28 02:00:00 7.2 23 Este 30 Este 0 769.5 -0.3 59
2019-05-28 01:00:00 7.4 24 Este 31 Este 0 769.8 0.2 54
2019-05-28 00:00:00 7.6 22 Este 33 Este 0 770 0.6 51